Time;durP1;ratioP1;P1;durP2;ratioP2;P2;SDS_P1;SDS_P2;PMS_P1;PMS_P2;Temp;Humidity;BMP_temperature;BMP_pressure;BME280_temperature;BME280_humidity;BME280_pressure;Samples;Min_cycle;Max_cycle;Signal;HPM_P1;HPM_P2
2021/03/25 00:00:31;;;;;;;16.80;11.50;;;6.40;59.20;;;;;;5097154;28;20069;-72
2021/03/25 00:02:59;;;;;;;14.32;10.93;;;6.30;59.70;;;;;;5097007;28;20036;-72
2021/03/25 00:05:27;;;;;;;15.00;11.30;;;6.20;60.20;;;;;;5097139;28;20051;-72
2021/03/25 00:07:53;;;;;;;18.95;12.80;;;6.20;60.30;;;;;;5096922;28;20052;-72
2021/03/25 00:10:22;;;;;;;13.65;11.25;;;6.20;59.80;;;;;;5097168;28;20059;-72
2021/03/25 00:12:48;;;;;;;17.85;11.18;;;6.30;60.40;;;;;;5096836;28;20070;-72
2021/03/25 00:15:15;;;;;;;17.08;11.30;;;6.30;60.80;;;;;;5096766;28;20439;-72
2021/03/25 00:17:40;;;;;;;18.67;11.77;;;6.20;60.90;;;;;;5078901;28;20030;-72
2021/03/25 00:20:09;;;;;;;16.40;11.60;;;6.10;60.80;;;;;;5097016;28;20107;-72
2021/03/25 00:22:35;;;;;;;17.75;11.30;;;6.00;61.10;;;;;;5096491;28;20036;-72
2021/03/25 00:25:01;;;;;;;15.27;11.18;;;6.00;61.50;;;;;;5096463;28;20082;-72
2021/03/25 00:27:26;;;;;;;17.52;10.90;;;5.90;61.50;;;;;;5096751;28;20428;-72
2021/03/25 00:29:52;;;;;;;17.10;11.85;;;5.80;62.00;;;;;;5078796;28;20032;-72
2021/03/25 00:32:18;;;;;;;14.75;10.50;;;5.80;62.10;;;;;;5100988;28;20040;-72
2021/03/25 00:34:44;;;;;;;13.98;10.77;;;5.80;62.20;;;;;;5100956;28;20315;-72
2021/03/25 00:37:09;;;;;;;19.00;10.85;;;5.80;62.40;;;;;;5101067;28;20035;-72
2021/03/25 00:39:35;;;;;;;16.40;11.20;;;5.70;62.00;;;;;;5100757;28;20438;-72
2021/03/25 00:42:01;;;;;;;15.30;10.82;;;5.70;62.40;;;;;;5100836;28;20360;-72
2021/03/25 00:44:26;;;;;;;15.35;10.43;;;5.80;61.50;;;;;;5100813;28;20107;-72
2021/03/25 00:46:52;;;;;;;17.05;11.18;;;5.80;62.20;;;;;;5100610;28;20032;-72
2021/03/25 00:49:18;;;;;;;15.77;10.45;;;5.70;62.40;;;;;;5100666;28;20076;-72
2021/03/25 00:51:43;;;;;;;13.50;10.45;;;5.70;62.70;;;;;;5100488;28;20081;-72
2021/03/25 00:54:09;;;;;;;15.27;10.95;;;5.60;63.00;;;;;;5100750;28;20024;-71
2021/03/25 00:56:37;;;;;;;15.13;11.02;;;5.60;63.20;;;;;;5100623;28;20116;-72
2021/03/25 00:59:03;;;;;;;16.38;11.40;;;5.60;63.50;;;;;;5100292;28;20103;-71
2021/03/25 01:01:29;;;;;;;20.25;11.93;;;5.50;63.50;;;;;;5100581;28;20034;-72
2021/03/25 01:03:54;;;;;;;14.90;11.00;;;5.50;63.90;;;;;;5100037;28;20107;-72
2021/03/25 01:06:20;;;;;;;16.55;11.00;;;5.50;63.90;;;;;;5100589;28;20024;-72
2021/03/25 01:08:46;;;;;;;17.73;12.25;;;5.50;64.20;;;;;;5100295;28;20016;-72
2021/03/25 01:11:20;;;;;;;16.08;11.38;;;5.40;64.50;;;;;;5100142;28;20031;-72
2021/03/25 01:13:55;;;;;;;18.20;12.50;;;5.40;64.20;;;;;;5081986;28;20116;-72
2021/03/25 01:16:29;;;;;;;14.93;10.73;;;5.40;64.10;;;;;;5099981;28;20047;-72
2021/03/25 01:18:57;;;;;;;14.95;10.43;;;5.40;64.10;;;;;;5100198;28;20024;-72
2021/03/25 01:21:23;;;;;;;15.13;10.15;;;5.40;64.50;;;;;;5099971;28;20366;-72
2021/03/25 01:23:49;;;;;;;16.25;12.00;;;5.30;64.10;;;;;;5100120;28;20033;-72
2021/03/25 01:26:15;;;;;;;18.10;12.00;;;5.30;64.50;;;;;;5080960;28;20084;-72
2021/03/25 01:28:40;;;;;;;19.48;11.30;;;5.30;64.90;;;;;;5098557;28;20047;-71
2021/03/25 01:31:06;;;;;;;14.93;11.60;;;5.30;64.60;;;;;;5080605;28;20036;-72
2021/03/25 01:33:32;;;;;;;17.67;12.55;;;5.20;64.50;;;;;;5098343;28;20030;-72
2021/03/25 01:35:58;;;;;;;15.30;12.35;;;5.20;64.20;;;;;;5098692;28;20028;-72
2021/03/25 01:38:24;;;;;;;15.95;12.25;;;5.20;64.00;;;;;;5098426;28;20412;-72
2021/03/25 01:40:57;;;;;;;20.65;12.18;;;5.20;64.30;;;;;;5098400;28;20027;-72
2021/03/25 01:43:28;;;;;;;19.75;12.50;;;5.20;64.60;;;;;;5080307;28;20024;-72
2021/03/25 01:46:05;;;;;;;16.13;11.05;;;5.20;64.90;;;;;;5098273;28;20032;-72
2021/03/25 01:48:36;;;;;;;28.38;11.38;;;5.20;65.10;;;;;;5098247;28;20031;-72
2021/03/25 01:51:13;;;;;;;15.18;11.25;;;5.20;64.60;;;;;;5098390;28;20024;-72
2021/03/25 01:53:59;;;;;;;17.15;11.55;;;5.20;65.00;;;;;;5098114;28;20032;-72
2021/03/25 01:57:12;;;;;;;15.98;11.60;;;5.20;64.80;;;;;;5098593;28;20032;-72
2021/03/25 01:59:53;;;;;;;16.13;11.88;;;5.20;64.20;;;;;;5073278;28;20078;-72
2021/03/25 02:02:37;;;;;;;17.77;12.15;;;5.20;64.40;;;;;;5098231;28;20119;-72
2021/03/25 02:05:22;;;;;;;18.35;11.45;;;5.30;64.50;;;;;;5098056;28;20020;-72
2021/03/25 02:07:57;;;;;;;15.50;11.38;;;5.30;64.30;;;;;;5098219;28;20047;-72
2021/03/25 02:10:42;;;;;;;18.63;11.40;;;5.30;64.70;;;;;;5098492;28;20392;-72
2021/03/25 02:13:30;;;;;;;18.98;12.35;;;5.30;65.30;;;;;;5097869;28;20434;-72
2021/03/25 02:16:06;;;;;;;17.30;12.30;;;5.20;65.50;;;;;;5098110;28;20027;-72
2021/03/25 02:18:56;;;;;;;19.35;12.65;;;5.10;65.80;;;;;;5097885;28;20028;-72
2021/03/25 02:21:49;;;;;;;17.27;12.23;;;5.10;65.70;;;;;;5097892;28;20028;-72
2021/03/25 02:24:30;;;;;;;17.60;11.73;;;5.10;65.80;;;;;;5097987;28;20404;-72
2021/03/25 02:27:01;;;;;;;13.48;10.63;;;5.00;66.20;;;;;;5074911;28;671368;-72
2021/03/25 02:29:40;;;;;;;16.90;12.30;;;5.10;66.10;;;;;;5098625;28;20032;-72
2021/03/25 02:32:11;;;;;;;18.95;13.05;;;5.00;66.60;;;;;;5098794;28;20028;-71
2021/03/25 02:34:42;;;;;;;16.15;11.32;;;5.00;66.40;;;;;;5098423;28;20407;-72
2021/03/25 02:37:18;;;;;;;19.00;12.23;;;5.00;66.30;;;;;;5098491;28;20024;-72
2021/03/25 02:40:05;;;;;;;;;;;4.90;66.70;;;;;;5098886;28;20423;-72
2021/03/25 02:42:46;;;;;;;22.53;12.73;;;4.90;66.90;;;;;;5080458;28;20283;-72
2021/03/25 02:45:23;;;;;;;22.23;13.00;;;4.90;67.00;;;;;;5080308;28;20103;-71
2021/03/25 02:47:53;;;;;;;18.85;13.02;;;4.90;67.10;;;;;;5098190;28;20031;-72
2021/03/25 02:50:24;;;;;;;21.50;13.32;;;4.90;67.60;;;;;;5098232;28;20107;-71
2021/03/25 02:52:56;;;;;;;20.23;13.48;;;4.90;67.70;;;;;;5079624;28;20032;-72
2021/03/25 02:55:23;;;;;;;18.80;13.20;;;4.90;68.20;;;;;;5098108;28;20035;-71
2021/03/25 02:57:49;;;;;;;19.25;12.68;;;4.90;68.90;;;;;;5098322;28;20032;-72
2021/03/25 03:00:21;;;;;;;19.63;13.02;;;4.90;69.20;;;;;;5098010;28;20366;-72
2021/03/25 03:02:56;;;;;;;18.25;11.75;;;4.90;69.20;;;;;;5097837;28;20408;-72
2021/03/25 03:05:25;;;;;;;23.13;13.32;;;4.80;69.50;;;;;;5098482;28;20019;-71
2021/03/25 03:08:14;;;;;;;17.92;12.45;;;4.80;69.90;;;;;;5098386;28;20028;-72
2021/03/25 03:10:52;;;;;;;19.67;13.82;;;4.70;69.90;;;;;;5097761;28;20020;-72
2021/03/25 03:13:21;;;;;;;21.35;13.45;;;4.70;69.60;;;;;;5097925;28;20104;-71
2021/03/25 03:16:06;;;;;;;17.20;12.77;;;4.80;69.30;;;;;;5097975;28;20025;-72
2021/03/25 03:19:00;;;;;;;18.15;12.63;;;4.80;69.30;;;;;;5097934;28;20028;-72
2021/03/25 03:21:47;;;;;;;18.90;12.98;;;4.80;69.30;;;;;;5097689;28;20034;-72
2021/03/25 03:24:14;;;;;;;19.08;12.10;;;4.70;69.90;;;;;;5097386;28;20121;-72
2021/03/25 03:27:09;;;;;;;16.90;12.70;;;4.70;70.30;;;;;;5097372;28;20070;-72
2021/03/25 03:29:36;;;;;;;18.65;13.05;;;4.70;70.70;;;;;;5079837;28;20329;-72
2021/03/25 03:32:05;;;;;;;19.95;13.23;;;4.70;70.70;;;;;;5097392;28;20427;-71
2021/03/25 03:34:38;;;;;;;21.27;13.65;;;4.70;70.90;;;;;;5097362;28;20024;-72
2021/03/25 03:37:11;;;;;;;16.63;12.50;;;4.70;70.70;;;;;;5079393;28;20066;-72
2021/03/25 03:39:40;;;;;;;21.33;13.68;;;4.70;70.10;;;;;;5097588;28;20028;-72
2021/03/25 03:42:15;;;;;;;16.58;12.30;;;4.70;70.10;;;;;;5097213;28;20024;-72
2021/03/25 03:44:50;;;;;;;17.33;12.37;;;4.60;70.20;;;;;;5097411;28;20412;-71
2021/03/25 03:47:19;;;;;;;18.13;13.82;;;4.60;70.40;;;;;;5097185;28;20020;-72
2021/03/25 03:50:01;;;;;;;19.92;13.07;;;4.60;70.30;;;;;;5097176;28;20017;-71
2021/03/25 03:52:30;;;;;;;22.92;13.85;;;4.50;70.30;;;;;;5097463;28;20373;-71
2021/03/25 03:54:57;;;;;;;19.80;13.95;;;4.60;70.30;;;;;;5097030;28;20383;-71
2021/03/25 03:57:29;;;;;;;17.65;12.73;;;4.60;69.90;;;;;;5097084;28;20112;-72
2021/03/25 04:00:36;;;;;;;19.88;14.18;;;4.70;69.90;;;;;;5097065;28;20016;-71
2021/03/25 04:03:27;;;;;;;18.02;12.98;;;4.70;70.10;;;;;;5075064;28;20153;-71
2021/03/25 04:05:56;;;;;;;22.02;13.75;;;4.70;69.90;;;;;;5078979;28;20024;-71
2021/03/25 04:08:48;;;;;;;18.63;13.57;;;4.70;69.70;;;;;;5097364;28;20086;-71
2021/03/25 04:11:24;;;;;;;20.38;13.80;;;4.70;69.90;;;;;;5097390;28;20110;-71
2021/03/25 04:13:56;;;;;;;17.27;12.75;;;4.70;70.00;;;;;;5096769;28;20028;-71
2021/03/25 04:16:24;;;;;;;19.60;13.10;;;4.70;70.10;;;;;;5096867;28;20057;-72
2021/03/25 04:19:17;;;;;;;17.55;12.55;;;4.70;70.20;;;;;;5096762;28;20449;-71
2021/03/25 04:22:05;;;;;;;17.98;12.98;;;4.60;70.30;;;;;;5097043;28;20107;-71
2021/03/25 04:24:40;;;;;;;688.00;59.22;;;4.70;70.30;;;;;;5078693;28;20028;-72
2021/03/25 04:27:17;;;;;;;417.85;34.03;;;4.70;70.20;;;;;;5096569;28;20055;-71
2021/03/25 04:30:04;;;;;;;25.73;14.13;;;4.70;70.40;;;;;;5078865;28;20021;-71
2021/03/25 04:32:30;;;;;;;21.77;13.98;;;4.70;70.30;;;;;;5096642;28;20020;-71
2021/03/25 04:34:59;;;;;;;18.48;13.30;;;4.60;70.30;;;;;;5096567;28;20363;-71
2021/03/25 04:37:28;;;;;;;17.98;13.30;;;4.60;70.20;;;;;;5097241;28;20396;-71
2021/03/25 04:39:54;;;;;;;18.73;13.77;;;4.60;70.50;;;;;;5096565;28;20066;-71
2021/03/25 04:42:19;;;;;;;20.00;13.80;;;4.60;70.40;;;;;;5096538;28;20052;-71
2021/03/25 04:44:51;;;;;;;19.67;13.70;;;4.60;70.10;;;;;;5096725;28;20432;-71
2021/03/25 04:47:21;;;;;;;20.35;14.48;;;4.70;69.70;;;;;;5096519;28;20031;-72
2021/03/25 04:50:03;;;;;;;21.40;13.73;;;4.70;70.20;;;;;;5096505;28;20028;-73
2021/03/25 04:52:32;;;;;;;20.80;14.55;;;4.70;70.30;;;;;;5096808;28;20032;-74
2021/03/25 04:55:19;;;;;;;20.67;14.50;;;4.70;70.10;;;;;;5096396;28;20021;-74
2021/03/25 04:58:00;;;;;;;19.73;14.88;;;4.70;70.20;;;;;;5096596;28;20362;-74
2021/03/25 05:00:30;;;;;;;20.65;15.20;;;4.60;70.70;;;;;;5096402;28;20031;-74
2021/03/25 05:02:56;;;;;;;21.10;14.60;;;4.40;71.10;;;;;;5078319;28;20089;-74
2021/03/25 05:05:28;;;;;;;18.45;13.32;;;4.30;71.20;;;;;;5078312;28;20364;-74
2021/03/25 05:08:03;;;;;;;20.80;14.38;;;4.50;71.10;;;;;;5096769;28;20032;-74
2021/03/25 05:10:53;;;;;;;27.02;15.18;;;4.50;71.10;;;;;;5096652;28;20430;-74
2021/03/25 05:13:31;;;;;;;26.33;14.52;;;4.50;71.50;;;;;;5096649;28;20066;-74
2021/03/25 05:16:24;;;;;;;19.48;14.00;;;4.40;71.50;;;;;;5096567;28;20024;-74
2021/03/25 05:19:14;;;;;;;21.88;13.52;;;4.30;71.40;;;;;;5087528;28;20128;-74
2021/03/25 05:21:54;;;;;;;21.73;14.13;;;4.40;70.90;;;;;;5100153;28;20415;-74
2021/03/25 05:24:29;;;;;;;19.23;13.75;;;4.40;71.10;;;;;;5100238;28;20033;-74
2021/03/25 05:27:23;;;;;;;20.17;14.20;;;4.60;70.70;;;;;;5099678;28;20052;-74
2021/03/25 05:29:53;;;;;;;21.55;14.48;;;4.60;70.50;;;;;;5099835;28;20031;-74
2021/03/25 05:32:21;;;;;;;20.30;14.98;;;4.70;70.90;;;;;;5099758;28;20024;-74
2021/03/25 05:34:49;;;;;;;22.35;14.82;;;4.60;70.10;;;;;;5099684;28;20403;-74
2021/03/25 05:37:16;;;;;;;26.63;14.32;;;4.70;70.90;;;;;;5099643;28;20069;-74
2021/03/25 05:39:42;;;;;;;19.77;13.85;;;4.80;71.10;;;;;;5099707;28;20028;-74
2021/03/25 05:42:30;;;;;;;24.02;14.23;;;4.90;70.60;;;;;;5099466;28;20012;-74
2021/03/25 05:45:27;;;;;;;16.17;12.90;;;5.10;70.50;;;;;;5081504;28;20032;-74
2021/03/25 05:48:00;;;;;;;20.23;12.82;;;5.30;69.70;;;;;;5099455;28;20101;-74
2021/03/25 05:50:41;;;;;;;16.50;13.00;;;5.50;70.10;;;;;;5099881;28;20027;-74
2021/03/25 05:53:24;;;;;;;18.00;13.48;;;5.60;71.10;;;;;;5099620;28;20028;-74
2021/03/25 05:56:01;;;;;;;18.63;12.32;;;5.70;71.00;;;;;;5099640;28;20036;-74
2021/03/25 05:59:08;;;;;;;19.15;12.95;;;5.90;70.40;;;;;;5099484;28;20383;-74
2021/03/25 06:02:16;;;;;;;19.60;13.15;;;6.00;69.80;;;;;;4998315;28;20414;-74
2021/03/25 06:04:41;;;;;;;19.63;13.98;;;6.10;68.10;;;;;;5059591;28;20343;-74
2021/03/25 06:07:16;;;;;;;20.80;13.90;;;6.30;66.60;;;;;;5099089;28;20031;-74
2021/03/25 06:10:03;;;;;;;19.63;12.57;;;6.40;66.20;;;;;;5099166;28;20431;-74
2021/03/25 06:13:03;;;;;;;20.15;13.52;;;6.50;66.40;;;;;;5099103;28;20047;-74
2021/03/25 06:15:59;;;;;;;19.42;12.50;;;6.50;68.40;;;;;;5099100;28;20373;-72
2021/03/25 06:18:36;;;;;;;19.58;12.32;;;6.60;68.70;;;;;;5098960;28;20093;-72
2021/03/25 06:21:29;;;;;;;20.05;12.90;;;6.60;65.80;;;;;;5098815;28;20031;-72
2021/03/25 06:24:00;;;;;;;22.75;13.20;;;6.80;65.60;;;;;;5099128;28;20316;-72
2021/03/25 06:26:34;;;;;;;17.73;13.40;;;7.00;65.00;;;;;;5098572;28;20048;-72
2021/03/25 06:29:09;;;;;;;17.13;11.35;;;7.10;66.40;;;;;;5097441;28;20016;-72
2021/03/25 06:31:57;;;;;;;18.85;12.32;;;7.30;66.50;;;;;;5098758;28;20024;-72
2021/03/25 06:34:47;;;;;;;15.68;11.65;;;7.40;65.50;;;;;;5098537;28;20028;-72
2021/03/25 06:37:29;;;;;;;19.60;11.98;;;7.70;64.90;;;;;;5098820;28;20043;-72
2021/03/25 06:39:57;;;;;;;15.18;11.63;;;7.80;64.10;;;;;;5098502;28;20028;-72
2021/03/25 06:42:25;;;;;;;18.38;11.73;;;7.80;65.40;;;;;;5098434;28;20020;-72
2021/03/25 06:45:24;;;;;;;20.55;12.82;;;7.90;64.90;;;;;;5098283;28;20020;-72
2021/03/25 06:48:05;;;;;;;17.23;11.05;;;8.00;64.70;;;;;;5098618;28;20024;-72
2021/03/25 06:50:36;;;;;;;15.90;11.38;;;8.20;64.80;;;;;;5098730;28;20055;-72
2021/03/25 06:53:28;;;;;;;15.43;11.30;;;8.30;63.00;;;;;;5098434;28;20056;-72
2021/03/25 06:56:07;;;;;;;15.20;10.65;;;8.40;64.20;;;;;;5098409;28;20035;-72
2021/03/25 06:58:40;;;;;;;17.67;11.48;;;8.40;64.20;;;;;;5098341;28;20024;-72
2021/03/25 07:01:18;;;;;;;16.33;10.77;;;8.40;64.40;;;;;;5098103;28;20023;-72
2021/03/25 07:03:44;;;;;;;16.67;11.00;;;8.30;64.50;;;;;;5097937;28;20472;-72
2021/03/25 07:06:12;;;;;;;19.02;11.27;;;8.30;66.00;;;;;;5097963;28;20048;-72
2021/03/25 07:08:38;;;;;;;19.75;12.32;;;8.50;64.90;;;;;;5098157;28;20039;-72
2021/03/25 07:11:19;;;;;;;16.70;11.65;;;8.50;66.40;;;;;;5098081;28;20099;-72
2021/03/25 07:13:59;;;;;;;16.58;11.30;;;8.60;65.40;;;;;;5097912;28;20023;-72
2021/03/25 07:16:27;;;;;;;17.63;11.30;;;8.60;64.70;;;;;;5097750;28;20085;-72
2021/03/25 07:18:57;;;;;;;18.23;10.95;;;8.70;64.60;;;;;;5079756;28;20077;-72
2021/03/25 07:21:23;;;;;;;15.93;10.70;;;8.80;64.20;;;;;;5097701;28;20055;-72
2021/03/25 07:23:49;;;;;;;14.98;10.05;;;8.80;65.20;;;;;;5097985;28;20069;-72
2021/03/25 07:26:31;;;;;;;14.13;10.60;;;8.90;64.10;;;;;;5097415;28;20048;-72
2021/03/25 07:29:11;;;;;;;19.88;11.25;;;9.00;64.30;;;;;;5097675;28;20098;-72
2021/03/25 07:32:00;;;;;;;16.00;9.98;;;9.10;64.00;;;;;;5097517;28;20027;-72
2021/03/25 07:34:44;;;;;;;15.35;10.55;;;9.40;64.60;;;;;;5097602;28;20028;-72
2021/03/25 07:37:13;;;;;;;16.10;9.77;;;9.80;63.10;;;;;;5097650;28;20073;-72
2021/03/25 07:39:50;;;;;;;17.52;10.07;;;10.00;62.20;;;;;;5079093;28;20039;-72
2021/03/25 07:42:35;;;;;;;13.05;9.30;;;9.90;62.60;;;;;;5097225;28;20024;-72
2021/03/25 07:45:19;;;;;;;17.50;10.32;;;9.60;64.40;;;;;;5097476;28;20027;-72
2021/03/25 07:47:45;;;;;;;13.77;10.15;;;9.30;65.50;;;;;;5097623;28;20024;-72
2021/03/25 07:50:19;;;;;;;16.52;11.25;;;9.20;65.50;;;;;;5097129;28;20020;-72
2021/03/25 07:52:45;;;;;;;16.10;10.90;;;9.10;63.40;;;;;;5097643;28;20035;-72
2021/03/25 07:55:21;;;;;;;14.20;11.18;;;9.10;64.50;;;;;;5097058;28;20470;-72
2021/03/25 07:57:49;;;;;;;15.20;10.75;;;9.10;63.50;;;;;;5097058;28;20028;-72
2021/03/25 08:00:23;;;;;;;16.13;10.52;;;9.20;65.80;;;;;;5097035;28;20024;-72
2021/03/25 08:03:10;;;;;;;15.57;11.00;;;9.30;64.20;;;;;;5078993;28;20028;-72
2021/03/25 08:05:36;;;;;;;16.83;11.20;;;9.50;64.90;;;;;;5079067;28;20028;-72
2021/03/25 08:08:24;;;;;;;16.90;10.82;;;10.00;62.10;;;;;;5097194;28;20026;-72
2021/03/25 08:11:06;;;;;;;29.88;11.98;;;10.60;61.50;;;;;;5096966;28;20016;-72
2021/03/25 08:13:32;;;;;;;17.08;11.23;;;11.20;59.90;;;;;;5096846;28;20078;-72
2021/03/25 08:16:06;;;;;;;13.57;10.45;;;12.20;57.40;;;;;;5096891;28;20020;-72
2021/03/25 08:18:40;;;;;;;16.88;11.07;;;13.10;54.30;;;;;;5096972;28;20028;-72
2021/03/25 08:21:40;;;;;;;15.65;10.57;;;14.00;53.30;;;;;;5097158;28;20027;-72
2021/03/25 08:24:30;;;;;;;16.42;11.13;;;14.90;51.20;;;;;;5097092;28;20032;-72
2021/03/25 08:27:11;;;;;;;18.77;11.50;;;15.90;49.40;;;;;;5078788;28;20321;-72
2021/03/25 08:29:45;;;;;;;14.15;11.07;;;16.20;48.40;;;;;;5096603;28;20024;-72
2021/03/25 08:32:17;;;;;;;15.13;11.32;;;16.70;47.00;;;;;;5096965;28;20020;-72
2021/03/25 08:34:49;;;;;;;13.80;10.75;;;17.00;46.50;;;;;;5096653;28;20028;-72
2021/03/25 08:37:14;;;;;;;16.27;11.23;;;17.20;46.30;;;;;;5078687;28;20024;-72
2021/03/25 08:39:55;;;;;;;14.90;11.38;;;17.30;45.60;;;;;;5096691;28;20324;-72
2021/03/25 08:42:36;;;;;;;14.27;11.20;;;17.50;45.30;;;;;;5096684;28;20024;-70
2021/03/25 08:45:17;;;;;;;14.07;10.68;;;17.50;46.00;;;;;;5096869;28;20100;-70
2021/03/25 08:47:54;;;;;;;18.63;11.32;;;17.70;45.80;;;;;;5096587;28;20099;-72
2021/03/25 08:50:41;;;;;;;16.67;12.13;;;17.80;45.30;;;;;;5078694;28;20028;-72
2021/03/25 08:53:35;;;;;;;12.35;10.80;;;18.00;44.50;;;;;;5100595;28;20097;-72
2021/03/25 08:56:08;;;;;;;17.58;10.80;;;18.30;45.20;;;;;;5087912;28;20044;-72
2021/03/25 08:58:37;;;;;;;15.45;10.68;;;18.50;43.90;;;;;;5100402;28;20030;-72
2021/03/25 09:01:15;;;;;;;15.23;10.95;;;18.70;44.10;;;;;;5100592;28;20029;-72
2021/03/25 09:03:56;;;;;;;15.73;11.52;;;18.60;43.20;;;;;;5082201;28;20077;-72
2021/03/25 09:06:30;;;;;;;13.40;11.20;;;18.20;43.70;;;;;;5100456;28;20035;-72
2021/03/25 09:09:19;;;;;;;13.95;11.15;;;18.20;44.70;;;;;;5100488;28;20020;-72
2021/03/25 09:11:44;;;;;;;14.88;11.18;;;18.40;45.00;;;;;;5099511;28;20036;-72
2021/03/25 09:14:30;;;;;;;17.58;12.30;;;18.70;43.40;;;;;;5100085;28;20039;-72
2021/03/25 09:17:04;;;;;;;14.23;11.45;;;18.80;42.10;;;;;;5100437;28;20039;-72
2021/03/25 09:19:38;;;;;;;14.27;10.77;;;18.80;42.30;;;;;;5100166;28;20024;-71
2021/03/25 09:22:04;;;;;;;19.40;11.43;;;18.90;43.10;;;;;;5099953;28;20032;-72
2021/03/25 09:24:30;;;;;;;14.38;12.00;;;18.60;42.90;;;;;;5099866;28;20055;-72
2021/03/25 09:27:02;;;;;;;18.67;12.63;;;18.60;42.70;;;;;;5099710;28;20087;-72
2021/03/25 09:29:49;;;;;;;13.52;11.57;;;18.70;43.00;;;;;;5099921;28;20032;-73
2021/03/25 09:32:30;;;;;;;14.73;12.02;;;18.80;44.40;;;;;;5100055;28;20028;-72
2021/03/25 09:34:56;;;;;;;15.05;11.38;;;18.70;42.50;;;;;;5081693;28;20020;-72
2021/03/25 09:37:26;;;;;;;16.70;12.23;;;18.60;42.80;;;;;;5099951;28;20392;-72
2021/03/25 09:40:10;;;;;;;18.73;12.45;;;18.30;42.40;;;;;;5099599;28;20024;-72
2021/03/25 09:42:36;;;;;;;15.25;13.20;;;18.60;43.80;;;;;;5099785;28;20412;-72
2021/03/25 09:45:19;;;;;;;13.93;12.45;;;18.60;43.00;;;;;;5099477;28;20016;-72
2021/03/25 09:47:57;;;;;;;14.40;12.05;;;18.60;41.00;;;;;;5099671;28;20028;-72
2021/03/25 09:50:24;;;;;;;14.90;12.27;;;18.70;42.90;;;;;;5099997;28;20035;-72
2021/03/25 09:53:07;;;;;;;15.15;12.77;;;18.70;44.70;;;;;;5099560;28;20065;-72
2021/03/25 09:55:38;;;;;;;15.25;12.75;;;18.80;43.60;;;;;;5099950;28;20032;-72
2021/03/25 09:58:05;;;;;;;19.50;12.88;;;18.90;42.40;;;;;;5099306;28;20035;-72
2021/03/25 10:00:40;;;;;;;19.15;13.18;;;18.80;43.90;;;;;;5081287;28;20077;-72
2021/03/25 10:03:06;;;;;;;18.50;13.33;;;18.90;41.70;;;;;;5098750;28;20032;-72
2021/03/25 10:05:33;;;;;;;14.82;12.25;;;19.20;42.30;;;;;;5099173;28;20457;-72
2021/03/25 10:08:05;;;;;;;18.40;14.15;;;19.30;42.10;;;;;;5099141;28;20027;-72
2021/03/25 10:10:36;;;;;;;21.45;13.57;;;19.60;41.50;;;;;;5099040;28;20060;-72
2021/03/25 10:13:02;;;;;;;16.73;13.65;;;19.70;39.60;;;;;;5076809;28;20320;-72
2021/03/25 10:15:31;;;;;;;18.08;13.57;;;19.70;41.10;;;;;;5088762;28;20423;-72
2021/03/25 10:17:59;;;;;;;17.38;13.88;;;19.80;41.10;;;;;;5078806;28;20374;-72
2021/03/25 10:20:43;;;;;;;23.77;14.82;;;19.80;41.40;;;;;;5078603;28;20067;-72
2021/03/25 10:23:24;;;;;;;16.48;13.65;;;19.60;41.30;;;;;;5078320;28;20029;-72
2021/03/25 10:25:53;;;;;;;17.15;12.70;;;18.90;41.50;;;;;;5078579;28;20060;-72
2021/03/25 10:28:26;;;;;;;21.80;13.75;;;19.00;42.10;;;;;;5078479;28;20017;-72
2021/03/25 10:31:08;;;;;;;21.98;14.57;;;19.50;41.10;;;;;;5078374;28;20095;-72
2021/03/25 10:33:36;;;;;;;20.50;14.60;;;19.80;41.10;;;;;;5078390;28;20028;-72
2021/03/25 10:36:08;;;;;;;18.52;14.27;;;19.70;42.00;;;;;;5078502;28;20108;-72
2021/03/25 10:39:01;;;;;;;17.38;13.35;;;20.10;41.20;;;;;;5078424;28;20028;-70
2021/03/25 10:41:38;;;;;;;22.25;14.75;;;19.60;41.90;;;;;;5075667;28;20041;-72
2021/03/25 10:44:25;;;;;;;17.08;14.07;;;19.60;43.10;;;;;;5078147;28;20085;-72
2021/03/25 10:46:52;;;;;;;18.75;15.07;;;19.70;39.90;;;;;;5078212;28;20035;-72
2021/03/25 10:49:29;;;;;;;19.90;14.10;;;19.60;40.80;;;;;;5078050;28;20028;-72
2021/03/25 10:51:55;;;;;;;18.63;14.98;;;19.60;41.80;;;;;;5078071;28;20024;-72
2021/03/25 10:54:28;;;;;;;22.58;15.75;;;19.40;40.70;;;;;;5060438;28;20336;-70
2021/03/25 10:57:06;;;;;;;17.50;15.27;;;19.30;41.60;;;;;;5078100;28;20354;-71
2021/03/25 10:59:33;;;;;;;19.77;14.75;;;19.40;40.30;;;;;;5077930;28;20024;-70
2021/03/25 11:02:01;;;;;;;20.80;14.52;;;19.50;44.60;;;;;;5077754;28;20036;-70
2021/03/25 11:04:36;;;;;;;22.33;14.57;;;19.90;42.20;;;;;;5077828;28;20059;-70
2021/03/25 11:07:19;;;;;;;17.67;15.15;;;19.60;42.40;;;;;;5077812;28;20109;-70
2021/03/25 11:09:58;;;;;;;22.45;14.82;;;19.50;41.80;;;;;;5059951;28;20487;-71
2021/03/25 11:12:30;;;;;;;21.10;14.75;;;19.70;43.50;;;;;;5077592;28;20064;-70
2021/03/25 11:14:59;;;;;;;18.02;14.77;;;19.90;42.20;;;;;;5076850;28;20063;-73
2021/03/25 11:17:36;;;;;;;18.52;14.73;;;19.90;40.20;;;;;;5077473;28;20035;-70
2021/03/25 11:20:10;;;;;;;19.95;14.95;;;20.00;41.30;;;;;;5078036;28;20338;-70
2021/03/25 11:22:37;;;;;;;20.25;16.55;;;20.10;42.60;;;;;;5077425;28;20039;-73
2021/03/25 11:25:05;;;;;;;17.88;15.60;;;19.90;41.60;;;;;;5077044;28;20073;-71
2021/03/25 11:27:32;;;;;;;19.23;15.38;;;19.90;40.90;;;;;;5077617;28;20316;-70
2021/03/25 11:30:01;;;;;;;21.63;16.35;;;19.80;42.40;;;;;;5077504;28;20316;-70
2021/03/25 11:32:38;;;;;;;20.95;15.63;;;19.90;42.90;;;;;;5077198;28;20021;-70
2021/03/25 11:35:26;;;;;;;22.90;15.30;;;19.80;41.30;;;;;;5077221;28;20063;-72
2021/03/25 11:37:53;;;;;;;19.35;15.98;;;19.50;42.00;;;;;;5077099;28;20025;-72
2021/03/25 11:40:40;;;;;;;22.67;16.25;;;19.40;43.30;;;;;;5077190;28;20095;-72
2021/03/25 11:43:12;;;;;;;21.02;15.95;;;19.20;42.40;;;;;;5076987;28;20031;-72
2021/03/25 11:45:40;;;;;;;18.65;15.23;;;18.90;42.90;;;;;;5077177;28;20021;-72
2021/03/25 11:48:26;;;;;;;19.05;16.13;;;18.70;45.40;;;;;;5077372;28;20016;-72
2021/03/25 11:50:53;;;;;;;20.00;15.60;;;18.60;42.40;;;;;;5077008;28;20021;-72
2021/03/25 11:53:33;;;;;;;21.05;15.35;;;18.50;44.80;;;;;;5076872;28;20110;-72
2021/03/25 11:55:59;;;;;;;18.42;15.05;;;18.80;44.60;;;;;;5077002;28;20039;-72
2021/03/25 11:58:26;;;;;;;19.83;15.63;;;19.00;43.30;;;;;;5077093;28;20332;-72
2021/03/25 12:01:26;;;;;;;21.25;15.90;;;19.20;44.10;;;;;;5076796;28;20416;-72
2021/03/25 12:04:03;;;;;;;25.08;16.83;;;19.00;44.10;;;;;;5042723;28;20043;-72
2021/03/25 12:06:30;;;;;;;22.45;15.88;;;18.90;42.90;;;;;;5076934;28;20028;-72
2021/03/25 12:09:15;;;;;;;20.15;15.35;;;18.90;43.30;;;;;;5076753;28;20028;-72
2021/03/25 12:11:44;;;;;;;20.35;17.00;;;18.70;44.00;;;;;;5076678;28;20162;-72
2021/03/25 12:14:10;;;;;;;23.48;17.08;;;18.50;44.00;;;;;;5076554;28;20052;-72
2021/03/25 12:16:37;;;;;;;20.33;16.00;;;18.40;48.10;;;;;;5076689;28;20020;-72
2021/03/25 12:19:04;;;;;;;21.27;16.38;;;18.30;46.20;;;;;;5076663;28;20029;-72
2021/03/25 12:21:30;;;;;;;20.33;16.75;;;18.20;45.60;;;;;;5076626;28;20020;-72
2021/03/25 12:23:58;;;;;;;19.98;16.55;;;18.20;46.00;;;;;;5076847;28;20035;-72
2021/03/25 12:26:25;;;;;;;26.48;17.80;;;18.00;45.20;;;;;;5079114;28;20057;-72
2021/03/25 12:28:51;;;;;;;22.25;16.35;;;18.00;46.30;;;;;;5080998;28;20308;-72
2021/03/25 12:31:19;;;;;;;21.63;16.73;;;17.90;44.70;;;;;;5080660;28;20056;-72
2021/03/25 12:33:45;;;;;;;21.85;16.63;;;17.30;47.50;;;;;;5062830;28;20367;-72
2021/03/25 12:36:12;;;;;;;24.13;16.80;;;17.00;49.60;;;;;;5080645;28;20294;-72
2021/03/25 12:38:39;;;;;;;21.52;17.45;;;17.00;48.60;;;;;;5062784;28;20028;-72
2021/03/25 12:41:04;;;;;;;26.55;17.90;;;16.90;47.70;;;;;;5080805;28;20033;-72
2021/03/25 12:43:32;;;;;;;24.27;16.90;;;16.80;49.80;;;;;;5080329;28;20028;-72
2021/03/25 12:46:02;;;;;;;26.13;18.65;;;16.60;50.70;;;;;;5080437;28;20052;-72
2021/03/25 12:48:30;;;;;;;25.25;18.42;;;16.30;50.10;;;;;;5080324;28;20020;-72
2021/03/25 12:50:57;;;;;;;23.55;17.45;;;16.10;50.30;;;;;;5080320;28;20019;-72
2021/03/25 12:53:24;;;;;;;23.33;17.50;;;16.00;51.50;;;;;;5080389;28;20123;-72
2021/03/25 12:55:51;;;;;;;23.00;18.65;;;16.00;51.20;;;;;;5080188;28;20361;-72
2021/03/25 12:58:31;;;;;;;24.05;18.10;;;15.90;48.70;;;;;;5080238;28;20056;-72
2021/03/25 13:00:58;;;;;;;22.13;18.00;;;15.90;50.40;;;;;;5080280;28;20028;-72
2021/03/25 13:03:24;;;;;;;22.75;17.73;;;15.70;50.80;;;;;;5079914;28;20028;-72
2021/03/25 13:05:50;;;;;;;28.08;19.95;;;15.80;49.90;;;;;;5080307;28;20331;-72
2021/03/25 13:08:16;;;;;;;25.98;18.77;;;15.70;50.70;;;;;;5080446;28;20385;-72
2021/03/25 13:10:41;;;;;;;28.58;18.73;;;15.70;53.00;;;;;;5062233;28;20044;-72